This is the latest recevied weather packets stored in our database for station/object N6RDS. If no packets are shown the sender has not sent any weather packets the latest 1 day(s).
| Time | Temp. | Humidity | Pressure | Rain* | Wind** | Luminosity | Snow |
|---|---|---|---|---|---|---|---|
| 1836274719 | 12.22° C | 87% | 1029.7 hPa | 0 mm | 0 m/s | 0 W/m² | - |
| 1836274572 | 12.22° C | 88% | 1029.6 hPa | 0 mm | 0 m/s | 0 W/m² | - |
| 1836274418 | 12.22° C | 87% | 1029.6 hPa | 0 mm | 0 m/s | 0 W/m² | - |
| 1836274272 | 12.22° C | 87% | 1029.7 hPa | 0 mm | 0 m/s | 0 W/m² | - |
| 1836274116 | 12.78° C | 86% | 1029.5 hPa | 0 mm | 0 m/s | 0 W/m² | - |
| 1778019253 | 3.33° C | 89% | 1019.6 hPa | 1.78 mm | 0 m/s | 18 W/m² | - |
| 1778018950 | 3.33° C | 89% | 1019.7 hPa | 1.78 mm | 0 m/s | 17 W/m² | - |
| 1778018647 | 3.33° C | 89% | 1019.5 hPa | 1.78 mm | 0 m/s | 20 W/m² | - |
| 1778018345 | 3.33° C | 90% | 1019.5 hPa | 1.27 mm | 0 m/s | 22 W/m² | - |
| 1778018043 | 2.78° C | 89% | 1019.7 hPa | 3.05 mm | 0 m/s | 21 W/m² | - |
| 1778017740 | 2.78° C | 88% | 1019.6 hPa | 3.05 mm | 0 m/s | 19 W/m² | - |
| 1778017438 | 3.33° C | 87% | 1019.5 hPa | 3.05 mm | 0 m/s | 17 W/m² | - |
| 1778017135 | 3.33° C | 85% | 1019.6 hPa | 3.05 mm | 0 m/s | 18 W/m² | - |
| 1778016832 | 3.33° C | 84% | 1020 hPa | 3.05 mm | 0 m/s | 28 W/m² | - |
| 1778016528 | 3.33° C | 82% | 1019.7 hPa | 3.05 mm | 0 m/s | 21 W/m² | - |
| 1778016225 | 3.89° C | 79% | 1019.9 hPa | 1.27 mm | 0 m/s | 20 W/m² | - |
| 1778015921 | 3.89° C | 76% | 1020.2 hPa | 0 mm | 0 m/s | 22 W/m² | - |
| 1778015619 | 4.44° C | 72% | 1020.2 hPa | 0 mm | 0 m/s | 17 W/m² | - |
| 1778015316 | 5° C | 69% | 1020 hPa | 0 mm | 0 m/s | 16 W/m² | - |
| 1778015013 | 5.56° C | 65% | 1019.9 hPa | 0 mm | 0 m/s | 16 W/m² | - |
| 1778014709 | 5.56° C | 61% | 1019.7 hPa | 0 mm | 0.89 m/s, 298° | 17 W/m² | - |
| 1778014408 | 5.56° C | 61% | 1019.9 hPa | 0 mm | 0 m/s | 21 W/m² | - |
| 1778014104 | 6.11° C | 59% | 1019.6 hPa | 0 mm | 0.89 m/s, 224° | 19 W/m² | - |
| 1778013802 | 6.11° C | 58% | 1019.9 hPa | 0 mm | 0.45 m/s, 306° | 18 W/m² | - |
| 1778013499 | 6.67° C | 58% | 1019.7 hPa | 0 mm | 0.89 m/s, 357° | 17 W/m² | - |
* Rain latest hour (hover to see other rain measurements)
** Current wind speed in m/s (hover to see current wind gust speed)